sensor_id;sensor_type;location;lat;lon;timestamp;P1;durP1;ratioP1;P2;durP2;ratioP2
39452;SDS011;25154;-33.684;151.102;2022-12-29T00:03:20;6.10;;;1.40;;
39452;SDS011;25154;-33.684;151.102;2022-12-29T00:19:03;4.90;;;1.40;;
39452;SDS011;25154;-33.684;151.102;2022-12-29T00:24:06;6.13;;;1.50;;
39452;SDS011;25154;-33.684;151.102;2022-12-29T00:29:28;8.70;;;1.90;;
39452;SDS011;25154;-33.684;151.102;2022-12-29T00:34:49;12.18;;;1.95;;
39452;SDS011;25154;-33.684;151.102;2022-12-29T00:40:09;4.43;;;1.23;;
39452;SDS011;25154;-33.684;151.102;2022-12-29T00:45:31;11.32;;;2.08;;
39452;SDS011;25154;-33.684;151.102;2022-12-29T00:50:34;7.05;;;1.40;;
39452;SDS011;25154;-33.684;151.102;2022-12-29T00:55:36;10.27;;;2.05;;
39452;SDS011;25154;-33.684;151.102;2022-12-29T01:00:39;4.68;;;1.40;;
39452;SDS011;25154;-33.684;151.102;2022-12-29T01:05:43;4.75;;;1.50;;
39452;SDS011;25154;-33.684;151.102;2022-12-29T01:10:46;7.15;;;2.33;;
39452;SDS011;25154;-33.684;151.102;2022-12-29T01:15:58;7.10;;;1.58;;
39452;SDS011;25154;-33.684;151.102;2022-12-29T01:21:01;7.55;;;1.98;;
39452;SDS011;25154;-33.684;151.102;2022-12-29T01:26:12;8.27;;;2.03;;
39452;SDS011;25154;-33.684;151.102;2022-12-29T01:31:16;7.05;;;1.70;;
39452;SDS011;25154;-33.684;151.102;2022-12-29T01:36:18;5.38;;;1.67;;
39452;SDS011;25154;-33.684;151.102;2022-12-29T01:41:21;9.20;;;1.83;;
39452;SDS011;25154;-33.684;151.102;2022-12-29T01:46:28;10.67;;;1.67;;
39452;SDS011;25154;-33.684;151.102;2022-12-29T01:51:36;6.70;;;1.88;;
39452;SDS011;25154;-33.684;151.102;2022-12-29T01:56:42;12.52;;;1.95;;
39452;SDS011;25154;-33.684;151.102;2022-12-29T02:01:46;10.13;;;1.60;;
39452;SDS011;25154;-33.684;151.102;2022-12-29T02:06:57;7.68;;;1.60;;
39452;SDS011;25154;-33.684;151.102;2022-12-29T02:12:09;11.80;;;1.95;;
39452;SDS011;25154;-33.684;151.102;2022-12-29T02:33:22;8.70;;;2.03;;
39452;SDS011;25154;-33.684;151.102;2022-12-29T02:44:43;10.68;;;2.15;;
39452;SDS011;25154;-33.684;151.102;2022-12-29T02:55:38;10.85;;;1.65;;
39452;SDS011;25154;-33.684;151.102;2022-12-29T03:11:07;10.57;;;1.97;;
39452;SDS011;25154;-33.684;151.102;2022-12-29T03:16:45;8.27;;;2.33;;
39452;SDS011;25154;-33.684;151.102;2022-12-29T03:22:14;7.10;;;1.70;;
39452;SDS011;25154;-33.684;151.102;2022-12-29T03:27:33;8.50;;;1.63;;
39452;SDS011;25154;-33.684;151.102;2022-12-29T03:32:50;7.50;;;1.98;;
39452;SDS011;25154;-33.684;151.102;2022-12-29T03:43:26;8.13;;;1.70;;
39452;SDS011;25154;-33.684;151.102;2022-12-29T03:48:31;7.00;;;2.10;;
39452;SDS011;25154;-33.684;151.102;2022-12-29T03:53:35;8.25;;;2.25;;
39452;SDS011;25154;-33.684;151.102;2022-12-29T03:58:38;11.57;;;2.30;;
39452;SDS011;25154;-33.684;151.102;2022-12-29T04:03:42;6.45;;;1.80;;
39452;SDS011;25154;-33.684;151.102;2022-12-29T04:08:44;10.05;;;1.95;;
39452;SDS011;25154;-33.684;151.102;2022-12-29T04:13:47;12.30;;;2.05;;
39452;SDS011;25154;-33.684;151.102;2022-12-29T04:18:49;6.93;;;1.40;;
39452;SDS011;25154;-33.684;151.102;2022-12-29T04:23:51;11.10;;;1.80;;
39452;SDS011;25154;-33.684;151.102;2022-12-29T04:28:54;8.63;;;1.77;;
39452;SDS011;25154;-33.684;151.102;2022-12-29T04:33:56;8.20;;;1.75;;
39452;SDS011;25154;-33.684;151.102;2022-12-29T04:39:00;8.30;;;1.88;;
39452;SDS011;25154;-33.684;151.102;2022-12-29T04:44:02;7.75;;;1.67;;
39452;SDS011;25154;-33.684;151.102;2022-12-29T04:49:05;11.35;;;1.58;;
39452;SDS011;25154;-33.684;151.102;2022-12-29T04:54:09;10.60;;;1.95;;
39452;SDS011;25154;-33.684;151.102;2022-12-29T04:59:11;7.55;;;1.70;;
39452;SDS011;25154;-33.684;151.102;2022-12-29T05:04:13;14.18;;;1.88;;
39452;SDS011;25154;-33.684;151.102;2022-12-29T05:09:16;7.13;;;1.90;;
39452;SDS011;25154;-33.684;151.102;2022-12-29T05:14:18;9.23;;;1.73;;
39452;SDS011;25154;-33.684;151.102;2022-12-29T05:19:20;14.82;;;1.88;;
39452;SDS011;25154;-33.684;151.102;2022-12-29T05:24:23;7.82;;;2.00;;
39452;SDS011;25154;-33.684;151.102;2022-12-29T05:29:25;7.05;;;2.00;;
39452;SDS011;25154;-33.684;151.102;2022-12-29T05:34:27;8.88;;;1.80;;
39452;SDS011;25154;-33.684;151.102;2022-12-29T05:39:30;12.95;;;1.90;;
39452;SDS011;25154;-33.684;151.102;2022-12-29T05:44:32;9.00;;;1.85;;
39452;SDS011;25154;-33.684;151.102;2022-12-29T05:49:34;9.07;;;2.65;;
39452;SDS011;25154;-33.684;151.102;2022-12-29T05:54:36;7.28;;;1.60;;
39452;SDS011;25154;-33.684;151.102;2022-12-29T05:59:39;6.90;;;1.70;;
39452;SDS011;25154;-33.684;151.102;2022-12-29T06:04:41;10.80;;;2.35;;
39452;SDS011;25154;-33.684;151.102;2022-12-29T06:09:46;8.55;;;1.73;;
39452;SDS011;25154;-33.684;151.102;2022-12-29T06:14:49;11.05;;;1.73;;
39452;SDS011;25154;-33.684;151.102;2022-12-29T06:19:52;5.43;;;1.40;;
39452;SDS011;25154;-33.684;151.102;2022-12-29T06:24:54;7.20;;;1.95;;
39452;SDS011;25154;-33.684;151.102;2022-12-29T06:29:56;9.40;;;2.15;;
39452;SDS011;25154;-33.684;151.102;2022-12-29T06:34:59;11.77;;;3.13;;
39452;SDS011;25154;-33.684;151.102;2022-12-29T06:40:05;7.20;;;1.70;;
39452;SDS011;25154;-33.684;151.102;2022-12-29T06:45:08;9.80;;;2.17;;
39452;SDS011;25154;-33.684;151.102;2022-12-29T06:50:11;7.30;;;1.90;;
39452;SDS011;25154;-33.684;151.102;2022-12-29T06:55:13;6.55;;;1.70;;
39452;SDS011;25154;-33.684;151.102;2022-12-29T07:00:16;7.53;;;2.00;;
39452;SDS011;25154;-33.684;151.102;2022-12-29T07:05:19;6.55;;;1.70;;
39452;SDS011;25154;-33.684;151.102;2022-12-29T07:10:21;7.47;;;2.05;;
39452;SDS011;25154;-33.684;151.102;2022-12-29T07:15:23;7.25;;;1.67;;
39452;SDS011;25154;-33.684;151.102;2022-12-29T07:20:26;9.15;;;2.25;;
39452;SDS011;25154;-33.684;151.102;2022-12-29T07:25:28;10.70;;;2.30;;
39452;SDS011;25154;-33.684;151.102;2022-12-29T07:36:25;8.77;;;2.00;;
39452;SDS011;25154;-33.684;151.102;2022-12-29T07:41:29;7.97;;;1.50;;
39452;SDS011;25154;-33.684;151.102;2022-12-29T07:46:31;11.68;;;1.80;;
39452;SDS011;25154;-33.684;151.102;2022-12-29T07:51:34;10.82;;;1.95;;
39452;SDS011;25154;-33.684;151.102;2022-12-29T07:56:36;8.40;;;2.33;;
39452;SDS011;25154;-33.684;151.102;2022-12-29T08:01:38;8.52;;;1.83;;
39452;SDS011;25154;-33.684;151.102;2022-12-29T08:06:41;12.57;;;1.83;;
39452;SDS011;25154;-33.684;151.102;2022-12-29T08:11:46;11.13;;;2.15;;
39452;SDS011;25154;-33.684;151.102;2022-12-29T08:16:48;9.75;;;1.63;;
39452;SDS011;25154;-33.684;151.102;2022-12-29T08:21:52;8.18;;;1.63;;
39452;SDS011;25154;-33.684;151.102;2022-12-29T08:26:54;8.88;;;1.67;;
39452;SDS011;25154;-33.684;151.102;2022-12-29T08:31:57;6.10;;;1.80;;
39452;SDS011;25154;-33.684;151.102;2022-12-29T08:36:59;8.90;;;2.25;;
39452;SDS011;25154;-33.684;151.102;2022-12-29T08:42:02;7.88;;;1.65;;
39452;SDS011;25154;-33.684;151.102;2022-12-29T08:47:04;8.52;;;1.80;;
39452;SDS011;25154;-33.684;151.102;2022-12-29T08:52:07;9.32;;;1.98;;
39452;SDS011;25154;-33.684;151.102;2022-12-29T08:57:09;16.55;;;2.58;;
39452;SDS011;25154;-33.684;151.102;2022-12-29T09:02:12;7.78;;;1.58;;
39452;SDS011;25154;-33.684;151.102;2022-12-29T09:07:14;9.23;;;1.65;;
39452;SDS011;25154;-33.684;151.102;2022-12-29T09:12:17;11.02;;;1.83;;
39452;SDS011;25154;-33.684;151.102;2022-12-29T09:17:19;12.35;;;1.85;;
39452;SDS011;25154;-33.684;151.102;2022-12-29T09:22:40;9.82;;;1.90;;
39452;SDS011;25154;-33.684;151.102;2022-12-29T09:27:43;6.53;;;1.80;;
39452;SDS011;25154;-33.684;151.102;2022-12-29T09:32:48;10.40;;;1.67;;
39452;SDS011;25154;-33.684;151.102;2022-12-29T09:37:50;7.53;;;1.90;;
39452;SDS011;25154;-33.684;151.102;2022-12-29T09:48:27;6.13;;;1.88;;
39452;SDS011;25154;-33.684;151.102;2022-12-29T09:59:39;8.50;;;1.87;;
39452;SDS011;25154;-33.684;151.102;2022-12-29T10:04:43;8.18;;;1.65;;
39452;SDS011;25154;-33.684;151.102;2022-12-29T10:09:50;8.70;;;1.77;;
39452;SDS011;25154;-33.684;151.102;2022-12-29T10:26:03;9.43;;;2.45;;
39452;SDS011;25154;-33.684;151.102;2022-12-29T10:31:26;6.13;;;1.63;;
39452;SDS011;25154;-33.684;151.102;2022-12-29T10:36:43;9.60;;;2.03;;
39452;SDS011;25154;-33.684;151.102;2022-12-29T10:47:10;15.90;;;3.03;;
39452;SDS011;25154;-33.684;151.102;2022-12-29T10:52:49;12.65;;;2.67;;
39452;SDS011;25154;-33.684;151.102;2022-12-29T10:57:52;8.55;;;2.83;;
39452;SDS011;25154;-33.684;151.102;2022-12-29T11:08:17;14.35;;;2.63;;
39452;SDS011;25154;-33.684;151.102;2022-12-29T11:13:30;7.90;;;2.10;;
39452;SDS011;25154;-33.684;151.102;2022-12-29T11:18:37;9.48;;;2.28;;
39452;SDS011;25154;-33.684;151.102;2022-12-29T11:23:43;9.68;;;2.45;;
39452;SDS011;25154;-33.684;151.102;2022-12-29T11:44:58;8.65;;;3.05;;
39452;SDS011;25154;-33.684;151.102;2022-12-29T11:50:20;12.93;;;2.67;;
39452;SDS011;25154;-33.684;151.102;2022-12-29T11:55:28;14.30;;;2.72;;
39452;SDS011;25154;-33.684;151.102;2022-12-29T12:00:32;11.95;;;2.85;;
39452;SDS011;25154;-33.684;151.102;2022-12-29T12:05:48;15.98;;;2.55;;
39452;SDS011;25154;-33.684;151.102;2022-12-29T12:11:42;9.18;;;2.53;;
39452;SDS011;25154;-33.684;151.102;2022-12-29T12:16:53;11.40;;;2.50;;
39452;SDS011;25154;-33.684;151.102;2022-12-29T12:27:48;8.02;;;1.70;;
39452;SDS011;25154;-33.684;151.102;2022-12-29T12:33:06;16.63;;;2.38;;
39452;SDS011;25154;-33.684;151.102;2022-12-29T12:43:37;7.85;;;2.10;;
39452;SDS011;25154;-33.684;151.102;2022-12-29T13:26:01;10.65;;;1.85;;
39452;SDS011;25154;-33.684;151.102;2022-12-29T13:41:54;6.88;;;1.83;;
39452;SDS011;25154;-33.684;151.102;2022-12-29T13:46:59;4.68;;;1.58;;
39452;SDS011;25154;-33.684;151.102;2022-12-29T13:52:32;6.88;;;1.80;;
39452;SDS011;25154;-33.684;151.102;2022-12-29T14:08:33;10.10;;;1.73;;
39452;SDS011;25154;-33.684;151.102;2022-12-29T14:13:37;6.47;;;2.03;;
39452;SDS011;25154;-33.684;151.102;2022-12-29T14:18:42;6.75;;;1.60;;
39452;SDS011;25154;-33.684;151.102;2022-12-29T14:23:46;6.65;;;1.52;;
39452;SDS011;25154;-33.684;151.102;2022-12-29T14:28:51;8.45;;;1.85;;
39452;SDS011;25154;-33.684;151.102;2022-12-29T14:44:48;10.43;;;1.75;;
39452;SDS011;25154;-33.684;151.102;2022-12-29T14:49:54;6.05;;;1.63;;
39452;SDS011;25154;-33.684;151.102;2022-12-29T14:54:58;7.68;;;1.60;;
39452;SDS011;25154;-33.684;151.102;2022-12-29T15:00:22;9.73;;;1.98;;
39452;SDS011;25154;-33.684;151.102;2022-12-29T15:05:30;6.15;;;1.80;;
39452;SDS011;25154;-33.684;151.102;2022-12-29T15:16:25;10.80;;;2.15;;
39452;SDS011;25154;-33.684;151.102;2022-12-29T15:21:31;5.90;;;1.50;;
39452;SDS011;25154;-33.684;151.102;2022-12-29T15:26:39;8.82;;;2.28;;
39452;SDS011;25154;-33.684;151.102;2022-12-29T15:31:46;8.82;;;2.13;;
39452;SDS011;25154;-33.684;151.102;2022-12-29T15:36:49;10.90;;;1.77;;
39452;SDS011;25154;-33.684;151.102;2022-12-29T15:47:19;5.25;;;1.50;;
39452;SDS011;25154;-33.684;151.102;2022-12-29T15:52:31;8.93;;;1.92;;
39452;SDS011;25154;-33.684;151.102;2022-12-29T15:57:41;7.40;;;2.08;;
39452;SDS011;25154;-33.684;151.102;2022-12-29T16:02:44;10.60;;;1.80;;
39452;SDS011;25154;-33.684;151.102;2022-12-29T16:07:53;7.38;;;1.80;;
39452;SDS011;25154;-33.684;151.102;2022-12-29T16:13:01;8.32;;;1.80;;
39452;SDS011;25154;-33.684;151.102;2022-12-29T16:18:24;10.25;;;2.15;;
39452;SDS011;25154;-33.684;151.102;2022-12-29T16:23:31;10.40;;;2.17;;
39452;SDS011;25154;-33.684;151.102;2022-12-29T16:28:40;13.10;;;2.30;;
39452;SDS011;25154;-33.684;151.102;2022-12-29T16:33:48;12.33;;;2.73;;
39452;SDS011;25154;-33.684;151.102;2022-12-29T16:44:18;8.93;;;2.33;;
39452;SDS011;25154;-33.684;151.102;2022-12-29T16:49:23;8.38;;;2.00;;
39452;SDS011;25154;-33.684;151.102;2022-12-29T16:54:36;5.22;;;1.75;;
39452;SDS011;25154;-33.684;151.102;2022-12-29T16:59:40;10.55;;;2.35;;
39452;SDS011;25154;-33.684;151.102;2022-12-29T17:04:45;15.88;;;2.72;;
39452;SDS011;25154;-33.684;151.102;2022-12-29T17:09:50;9.80;;;2.67;;
39452;SDS011;25154;-33.684;151.102;2022-12-29T17:25:17;11.07;;;2.30;;
39452;SDS011;25154;-33.684;151.102;2022-12-29T17:30:31;10.95;;;2.10;;
39452;SDS011;25154;-33.684;151.102;2022-12-29T17:35:35;6.72;;;1.90;;
39452;SDS011;25154;-33.684;151.102;2022-12-29T17:40:38;8.65;;;1.73;;
39452;SDS011;25154;-33.684;151.102;2022-12-29T17:45:41;8.48;;;1.80;;
39452;SDS011;25154;-33.684;151.102;2022-12-29T17:50:49;10.13;;;2.13;;
39452;SDS011;25154;-33.684;151.102;2022-12-29T17:55:53;8.10;;;2.00;;
39452;SDS011;25154;-33.684;151.102;2022-12-29T18:01:00;7.30;;;1.83;;
39452;SDS011;25154;-33.684;151.102;2022-12-29T18:06:04;3.38;;;1.17;;
39452;SDS011;25154;-33.684;151.102;2022-12-29T18:11:23;5.97;;;1.60;;
39452;SDS011;25154;-33.684;151.102;2022-12-29T18:16:27;5.53;;;1.40;;
39452;SDS011;25154;-33.684;151.102;2022-12-29T18:21:29;2.03;;;1.00;;
39452;SDS011;25154;-33.684;151.102;2022-12-29T18:26:32;5.95;;;1.20;;
39452;SDS011;25154;-33.684;151.102;2022-12-29T18:31:37;7.55;;;1.25;;
39452;SDS011;25154;-33.684;151.102;2022-12-29T18:36:39;1.65;;;1.00;;
39452;SDS011;25154;-33.684;151.102;2022-12-29T18:41:41;2.65;;;1.02;;
39452;SDS011;25154;-33.684;151.102;2022-12-29T18:46:45;2.28;;;1.05;;
39452;SDS011;25154;-33.684;151.102;2022-12-29T18:51:47;2.72;;;1.10;;
39452;SDS011;25154;-33.684;151.102;2022-12-29T18:56:50;1.42;;;0.70;;
39452;SDS011;25154;-33.684;151.102;2022-12-29T19:01:52;1.70;;;0.80;;
39452;SDS011;25154;-33.684;151.102;2022-12-29T19:06:54;1.52;;;0.75;;
39452;SDS011;25154;-33.684;151.102;2022-12-29T19:11:57;2.60;;;0.80;;
39452;SDS011;25154;-33.684;151.102;2022-12-29T19:16:59;1.02;;;0.70;;
39452;SDS011;25154;-33.684;151.102;2022-12-29T19:22:03;1.50;;;0.90;;
39452;SDS011;25154;-33.684;151.102;2022-12-29T19:27:05;0.88;;;0.70;;
39452;SDS011;25154;-33.684;151.102;2022-12-29T19:32:07;1.00;;;0.70;;
39452;SDS011;25154;-33.684;151.102;2022-12-29T19:37:10;1.80;;;0.80;;
39452;SDS011;25154;-33.684;151.102;2022-12-29T19:42:12;1.30;;;0.80;;
39452;SDS011;25154;-33.684;151.102;2022-12-29T19:47:14;1.55;;;0.60;;
39452;SDS011;25154;-33.684;151.102;2022-12-29T19:52:17;1.42;;;0.80;;
39452;SDS011;25154;-33.684;151.102;2022-12-29T19:57:20;0.75;;;0.60;;
39452;SDS011;25154;-33.684;151.102;2022-12-29T20:02:24;0.50;;;0.50;;
39452;SDS011;25154;-33.684;151.102;2022-12-29T20:07:28;2.17;;;0.70;;
39452;SDS011;25154;-33.684;151.102;2022-12-29T20:12:30;2.50;;;0.80;;
39452;SDS011;25154;-33.684;151.102;2022-12-29T20:17:32;1.83;;;0.85;;
39452;SDS011;25154;-33.684;151.102;2022-12-29T20:22:35;0.70;;;0.70;;
39452;SDS011;25154;-33.684;151.102;2022-12-29T20:27:37;2.33;;;0.85;;
39452;SDS011;25154;-33.684;151.102;2022-12-29T20:32:40;3.15;;;1.00;;
39452;SDS011;25154;-33.684;151.102;2022-12-29T20:37:42;1.92;;;1.00;;
39452;SDS011;25154;-33.684;151.102;2022-12-29T20:42:44;2.47;;;1.00;;
39452;SDS011;25154;-33.684;151.102;2022-12-29T20:47:47;3.70;;;1.25;;
39452;SDS011;25154;-33.684;151.102;2022-12-29T20:52:49;1.73;;;0.88;;
39452;SDS011;25154;-33.684;151.102;2022-12-29T20:57:52;1.98;;;1.00;;
39452;SDS011;25154;-33.684;151.102;2022-12-29T21:02:55;1.88;;;0.98;;
39452;SDS011;25154;-33.684;151.102;2022-12-29T21:07:58;2.20;;;1.10;;
39452;SDS011;25154;-33.684;151.102;2022-12-29T21:13:01;3.47;;;1.10;;
39452;SDS011;25154;-33.684;151.102;2022-12-29T21:18:04;3.88;;;1.10;;
39452;SDS011;25154;-33.684;151.102;2022-12-29T21:23:06;1.98;;;1.20;;
39452;SDS011;25154;-33.684;151.102;2022-12-29T21:28:09;3.25;;;1.40;;
39452;SDS011;25154;-33.684;151.102;2022-12-29T21:33:12;3.40;;;1.10;;
39452;SDS011;25154;-33.684;151.102;2022-12-29T21:38:15;4.07;;;1.40;;
39452;SDS011;25154;-33.684;151.102;2022-12-29T21:43:17;5.95;;;1.38;;
39452;SDS011;25154;-33.684;151.102;2022-12-29T21:48:20;4.15;;;1.45;;
39452;SDS011;25154;-33.684;151.102;2022-12-29T21:53:26;8.30;;;1.80;;
39452;SDS011;25154;-33.684;151.102;2022-12-29T21:58:41;6.78;;;1.58;;
39452;SDS011;25154;-33.684;151.102;2022-12-29T22:04:03;8.85;;;1.58;;
39452;SDS011;25154;-33.684;151.102;2022-12-29T22:09:23;8.52;;;2.00;;
39452;SDS011;25154;-33.684;151.102;2022-12-29T22:14:44;11.27;;;2.72;;
39452;SDS011;25154;-33.684;151.102;2022-12-29T22:19:46;6.00;;;1.77;;
39452;SDS011;25154;-33.684;151.102;2022-12-29T22:24:48;7.00;;;1.70;;
39452;SDS011;25154;-33.684;151.102;2022-12-29T22:29:51;9.68;;;1.85;;
39452;SDS011;25154;-33.684;151.102;2022-12-29T22:34:53;9.80;;;2.05;;
39452;SDS011;25154;-33.684;151.102;2022-12-29T22:39:56;12.30;;;2.35;;
39452;SDS011;25154;-33.684;151.102;2022-12-29T22:44:58;13.23;;;2.17;;
39452;SDS011;25154;-33.684;151.102;2022-12-29T22:50:03;5.70;;;1.70;;
39452;SDS011;25154;-33.684;151.102;2022-12-29T22:55:06;9.77;;;2.20;;
39452;SDS011;25154;-33.684;151.102;2022-12-29T23:00:09;10.30;;;1.90;;
39452;SDS011;25154;-33.684;151.102;2022-12-29T23:05:11;11.00;;;2.00;;
39452;SDS011;25154;-33.684;151.102;2022-12-29T23:10:13;12.15;;;2.25;;
39452;SDS011;25154;-33.684;151.102;2022-12-29T23:15:16;9.73;;;1.60;;
39452;SDS011;25154;-33.684;151.102;2022-12-29T23:20:19;7.95;;;1.70;;
39452;SDS011;25154;-33.684;151.102;2022-12-29T23:25:21;5.45;;;1.45;;
39452;SDS011;25154;-33.684;151.102;2022-12-29T23:30:23;9.68;;;1.95;;
39452;SDS011;25154;-33.684;151.102;2022-12-29T23:35:29;8.43;;;2.00;;
39452;SDS011;25154;-33.684;151.102;2022-12-29T23:40:37;6.75;;;1.70;;
39452;SDS011;25154;-33.684;151.102;2022-12-29T23:45:39;4.88;;;1.42;;
39452;SDS011;25154;-33.684;151.102;2022-12-29T23:50:42;6.18;;;1.95;;
39452;SDS011;25154;-33.684;151.102;2022-12-29T23:55:54;8.90;;;1.67;;
